sensor_id;sensor_type;location;lat;lon;timestamp;temperature;humidity
20400;DHT22;10359;53.596;22.520;2022-09-16T00:02:12;9.30;99.90
20400;DHT22;10359;53.596;22.520;2022-09-16T00:04:41;9.20;99.90
20400;DHT22;10359;53.596;22.520;2022-09-16T00:07:10;9.20;99.90
20400;DHT22;10359;53.596;22.520;2022-09-16T00:09:41;9.20;99.90
20400;DHT22;10359;53.596;22.520;2022-09-16T00:12:10;9.20;99.90
20400;DHT22;10359;53.596;22.520;2022-09-16T00:14:45;9.10;99.90
20400;DHT22;10359;53.596;22.520;2022-09-16T00:17:16;9.10;99.90
20400;DHT22;10359;53.596;22.520;2022-09-16T00:19:52;9.00;99.90
20400;DHT22;10359;53.596;22.520;2022-09-16T00:22:21;9.00;99.90
20400;DHT22;10359;53.596;22.520;2022-09-16T00:24:50;8.90;99.90
20400;DHT22;10359;53.596;22.520;2022-09-16T00:27:19;8.90;99.90
20400;DHT22;10359;53.596;22.520;2022-09-16T00:29:49;8.90;99.90
20400;DHT22;10359;53.596;22.520;2022-09-16T00:32:19;8.90;99.90
20400;DHT22;10359;53.596;22.520;2022-09-16T00:34:51;8.90;99.90
20400;DHT22;10359;53.596;22.520;2022-09-16T00:37:21;8.80;99.90
20400;DHT22;10359;53.596;22.520;2022-09-16T00:39:50;8.90;99.90
20400;DHT22;10359;53.596;22.520;2022-09-16T00:42:20;8.80;99.90
20400;DHT22;10359;53.596;22.520;2022-09-16T00:44:57;8.80;99.90
20400;DHT22;10359;53.596;22.520;2022-09-16T00:47:34;8.80;99.90
20400;DHT22;10359;53.596;22.520;2022-09-16T00:50:08;8.70;99.90
20400;DHT22;10359;53.596;22.520;2022-09-16T00:52:38;8.70;99.90
20400;DHT22;10359;53.596;22.520;2022-09-16T00:55:14;8.70;99.90
20400;DHT22;10359;53.596;22.520;2022-09-16T00:57:46;8.70;99.90
20400;DHT22;10359;53.596;22.520;2022-09-16T01:00:15;8.60;99.90
20400;DHT22;10359;53.596;22.520;2022-09-16T01:02:46;8.60;99.90
20400;DHT22;10359;53.596;22.520;2022-09-16T01:05:20;8.60;99.90
20400;DHT22;10359;53.596;22.520;2022-09-16T01:07:54;8.60;99.90
20400;DHT22;10359;53.596;22.520;2022-09-16T01:10:29;8.60;99.90
20400;DHT22;10359;53.596;22.520;2022-09-16T01:13:03;8.70;99.90
20400;DHT22;10359;53.596;22.520;2022-09-16T01:15:36;8.70;99.90
20400;DHT22;10359;53.596;22.520;2022-09-16T01:18:18;8.70;99.90
20400;DHT22;10359;53.596;22.520;2022-09-16T01:21:02;8.80;99.90
20400;DHT22;10359;53.596;22.520;2022-09-16T01:26:50;8.90;99.90
20400;DHT22;10359;53.596;22.520;2022-09-16T01:29:32;8.90;99.90
20400;DHT22;10359;53.596;22.520;2022-09-16T01:32:08;9.10;99.90
20400;DHT22;10359;53.596;22.520;2022-09-16T01:34:49;9.20;99.90
20400;DHT22;10359;53.596;22.520;2022-09-16T01:37:27;9.30;99.90
20400;DHT22;10359;53.596;22.520;2022-09-16T01:40:08;9.50;99.90
20400;DHT22;10359;53.596;22.520;2022-09-16T01:42:49;9.60;99.90
20400;DHT22;10359;53.596;22.520;2022-09-16T01:45:32;9.60;99.90
20400;DHT22;10359;53.596;22.520;2022-09-16T01:48:09;9.50;99.90
20400;DHT22;10359;53.596;22.520;2022-09-16T01:50:43;9.40;99.90
20400;DHT22;10359;53.596;22.520;2022-09-16T01:53:17;9.40;99.90
20400;DHT22;10359;53.596;22.520;2022-09-16T01:55:50;9.60;99.90
20400;DHT22;10359;53.596;22.520;2022-09-16T01:58:25;9.70;99.90
20400;DHT22;10359;53.596;22.520;2022-09-16T02:00:58;9.80;99.90
20400;DHT22;10359;53.596;22.520;2022-09-16T02:03:33;10.00;99.90
20400;DHT22;10359;53.596;22.520;2022-09-16T02:06:07;10.10;99.90
20400;DHT22;10359;53.596;22.520;2022-09-16T02:08:40;10.10;99.90
20400;DHT22;10359;53.596;22.520;2022-09-16T02:11:16;10.20;99.90
20400;DHT22;10359;53.596;22.520;2022-09-16T02:13:57;10.30;99.90
20400;DHT22;10359;53.596;22.520;2022-09-16T02:16:31;10.10;99.90
20400;DHT22;10359;53.596;22.520;2022-09-16T02:19:07;10.10;99.90
20400;DHT22;10359;53.596;22.520;2022-09-16T02:21:40;10.10;99.90
20400;DHT22;10359;53.596;22.520;2022-09-16T02:24:15;10.00;99.90
20400;DHT22;10359;53.596;22.520;2022-09-16T02:26:50;10.10;99.90
20400;DHT22;10359;53.596;22.520;2022-09-16T02:29:24;10.10;99.90
20400;DHT22;10359;53.596;22.520;2022-09-16T02:31:58;10.10;99.90
20400;DHT22;10359;53.596;22.520;2022-09-16T02:34:36;10.00;99.90
20400;DHT22;10359;53.596;22.520;2022-09-16T02:37:10;10.10;99.90
20400;DHT22;10359;53.596;22.520;2022-09-16T02:39:40;10.00;99.90
20400;DHT22;10359;53.596;22.520;2022-09-16T02:42:13;9.90;99.90
20400;DHT22;10359;53.596;22.520;2022-09-16T02:44:43;9.80;99.90
20400;DHT22;10359;53.596;22.520;2022-09-16T02:47:18;9.80;99.90
20400;DHT22;10359;53.596;22.520;2022-09-16T02:49:54;9.70;99.90
20400;DHT22;10359;53.596;22.520;2022-09-16T02:52:31;9.70;99.90
20400;DHT22;10359;53.596;22.520;2022-09-16T02:55:10;9.60;99.90
20400;DHT22;10359;53.596;22.520;2022-09-16T02:57:41;9.50;99.90
20400;DHT22;10359;53.596;22.520;2022-09-16T03:00:11;9.40;99.90
20400;DHT22;10359;53.596;22.520;2022-09-16T03:02:40;9.50;99.90
20400;DHT22;10359;53.596;22.520;2022-09-16T03:05:11;9.40;99.90
20400;DHT22;10359;53.596;22.520;2022-09-16T03:07:41;9.40;99.90
20400;DHT22;10359;53.596;22.520;2022-09-16T03:10:11;9.40;99.90
20400;DHT22;10359;53.596;22.520;2022-09-16T03:12:49;9.40;99.90
20400;DHT22;10359;53.596;22.520;2022-09-16T03:15:49;9.40;99.90
20400;DHT22;10359;53.596;22.520;2022-09-16T03:18:40;9.30;99.90
20400;DHT22;10359;53.596;22.520;2022-09-16T03:21:22;9.30;99.90
20400;DHT22;10359;53.596;22.520;2022-09-16T03:23:59;9.30;99.90
20400;DHT22;10359;53.596;22.520;2022-09-16T03:26:35;9.20;99.90
20400;DHT22;10359;53.596;22.520;2022-09-16T03:29:15;9.20;99.90
20400;DHT22;10359;53.596;22.520;2022-09-16T03:31:49;9.10;99.90
20400;DHT22;10359;53.596;22.520;2022-09-16T03:34:24;9.10;99.90
20400;DHT22;10359;53.596;22.520;2022-09-16T03:37:00;9.10;99.90
20400;DHT22;10359;53.596;22.520;2022-09-16T03:39:30;9.10;99.90
20400;DHT22;10359;53.596;22.520;2022-09-16T03:42:01;9.10;99.90
20400;DHT22;10359;53.596;22.520;2022-09-16T03:44:33;9.00;99.90
20400;DHT22;10359;53.596;22.520;2022-09-16T03:47:03;9.00;99.90
20400;DHT22;10359;53.596;22.520;2022-09-16T03:49:32;9.00;99.90
20400;DHT22;10359;53.596;22.520;2022-09-16T03:52:03;9.00;99.90
20400;DHT22;10359;53.596;22.520;2022-09-16T03:54:34;9.00;99.90
20400;DHT22;10359;53.596;22.520;2022-09-16T03:57:03;9.00;99.90
20400;DHT22;10359;53.596;22.520;2022-09-16T03:59:33;8.90;99.90
20400;DHT22;10359;53.596;22.520;2022-09-16T04:02:02;8.90;99.90
20400;DHT22;10359;53.596;22.520;2022-09-16T04:04:31;8.90;99.90
20400;DHT22;10359;53.596;22.520;2022-09-16T04:07:00;8.90;99.90
20400;DHT22;10359;53.596;22.520;2022-09-16T04:09:31;8.90;99.90
20400;DHT22;10359;53.596;22.520;2022-09-16T04:12:00;8.90;99.90
20400;DHT22;10359;53.596;22.520;2022-09-16T04:14:30;8.80;99.90
20400;DHT22;10359;53.596;22.520;2022-09-16T04:17:01;8.80;99.90
20400;DHT22;10359;53.596;22.520;2022-09-16T04:19:30;8.80;99.90
20400;DHT22;10359;53.596;22.520;2022-09-16T04:22:00;8.90;99.90
20400;DHT22;10359;53.596;22.520;2022-09-16T04:24:31;8.90;99.90
20400;DHT22;10359;53.596;22.520;2022-09-16T04:27:01;9.00;99.90
20400;DHT22;10359;53.596;22.520;2022-09-16T04:29:30;9.00;99.90
20400;DHT22;10359;53.596;22.520;2022-09-16T04:31:59;9.00;99.90
20400;DHT22;10359;53.596;22.520;2022-09-16T04:34:28;9.00;99.90
20400;DHT22;10359;53.596;22.520;2022-09-16T04:36:58;9.00;99.90
20400;DHT22;10359;53.596;22.520;2022-09-16T04:39:28;9.00;99.90
20400;DHT22;10359;53.596;22.520;2022-09-16T04:41:58;9.10;99.90
20400;DHT22;10359;53.596;22.520;2022-09-16T04:44:27;9.10;99.90
20400;DHT22;10359;53.596;22.520;2022-09-16T04:46:58;9.20;99.90
20400;DHT22;10359;53.596;22.520;2022-09-16T04:49:27;9.20;99.90
20400;DHT22;10359;53.596;22.520;2022-09-16T04:51:57;9.30;99.90
20400;DHT22;10359;53.596;22.520;2022-09-16T04:54:26;9.30;99.90
20400;DHT22;10359;53.596;22.520;2022-09-16T04:56:55;9.30;99.90
20400;DHT22;10359;53.596;22.520;2022-09-16T04:59:25;9.40;99.90
20400;DHT22;10359;53.596;22.520;2022-09-16T05:01:54;9.40;99.90
20400;DHT22;10359;53.596;22.520;2022-09-16T05:04:24;9.50;99.90
20400;DHT22;10359;53.596;22.520;2022-09-16T05:06:53;9.50;99.90
20400;DHT22;10359;53.596;22.520;2022-09-16T05:09:22;9.60;99.90
20400;DHT22;10359;53.596;22.520;2022-09-16T05:11:52;9.60;99.90
20400;DHT22;10359;53.596;22.520;2022-09-16T05:14:21;9.70;99.90
20400;DHT22;10359;53.596;22.520;2022-09-16T05:16:52;9.70;99.90
20400;DHT22;10359;53.596;22.520;2022-09-16T05:19:21;9.80;99.90
20400;DHT22;10359;53.596;22.520;2022-09-16T05:21:50;9.80;99.90
20400;DHT22;10359;53.596;22.520;2022-09-16T05:24:19;9.90;99.90
20400;DHT22;10359;53.596;22.520;2022-09-16T05:26:48;9.90;99.90
20400;DHT22;10359;53.596;22.520;2022-09-16T05:29:18;10.00;99.90
20400;DHT22;10359;53.596;22.520;2022-09-16T05:31:47;10.00;99.90
20400;DHT22;10359;53.596;22.520;2022-09-16T05:34:19;10.10;99.90
20400;DHT22;10359;53.596;22.520;2022-09-16T05:36:49;10.20;99.90
20400;DHT22;10359;53.596;22.520;2022-09-16T05:39:21;10.20;99.90
20400;DHT22;10359;53.596;22.520;2022-09-16T05:41:54;10.30;99.90
20400;DHT22;10359;53.596;22.520;2022-09-16T05:44:23;10.40;99.90
20400;DHT22;10359;53.596;22.520;2022-09-16T05:46:53;10.40;99.90
20400;DHT22;10359;53.596;22.520;2022-09-16T05:49:24;10.50;99.90
20400;DHT22;10359;53.596;22.520;2022-09-16T05:51:53;10.60;99.90
20400;DHT22;10359;53.596;22.520;2022-09-16T05:54:23;10.60;99.90
20400;DHT22;10359;53.596;22.520;2022-09-16T05:56:52;10.70;99.90
20400;DHT22;10359;53.596;22.520;2022-09-16T05:59:21;10.80;99.90
20400;DHT22;10359;53.596;22.520;2022-09-16T06:01:51;10.90;99.90
20400;DHT22;10359;53.596;22.520;2022-09-16T06:04:23;10.90;99.90
20400;DHT22;10359;53.596;22.520;2022-09-16T06:06:52;11.00;99.90
20400;DHT22;10359;53.596;22.520;2022-09-16T06:09:22;11.10;99.90
20400;DHT22;10359;53.596;22.520;2022-09-16T06:11:52;11.20;99.90
20400;DHT22;10359;53.596;22.520;2022-09-16T06:14:28;11.30;99.90
20400;DHT22;10359;53.596;22.520;2022-09-16T06:16:59;11.30;99.90
20400;DHT22;10359;53.596;22.520;2022-09-16T06:19:29;11.30;99.90
20400;DHT22;10359;53.596;22.520;2022-09-16T06:21:58;11.40;99.90
20400;DHT22;10359;53.596;22.520;2022-09-16T06:24:27;11.50;99.90
20400;DHT22;10359;53.596;22.520;2022-09-16T06:26:57;11.50;99.90
20400;DHT22;10359;53.596;22.520;2022-09-16T06:29:26;11.60;99.90
20400;DHT22;10359;53.596;22.520;2022-09-16T06:31:56;11.60;99.90
20400;DHT22;10359;53.596;22.520;2022-09-16T06:34:26;11.80;99.90
20400;DHT22;10359;53.596;22.520;2022-09-16T06:36:56;11.90;99.90
20400;DHT22;10359;53.596;22.520;2022-09-16T06:39:26;11.90;99.90
20400;DHT22;10359;53.596;22.520;2022-09-16T06:41:56;12.10;99.90
20400;DHT22;10359;53.596;22.520;2022-09-16T06:44:25;12.20;99.90
20400;DHT22;10359;53.596;22.520;2022-09-16T06:46:54;12.20;99.90
20400;DHT22;10359;53.596;22.520;2022-09-16T06:49:24;12.10;99.90
20400;DHT22;10359;53.596;22.520;2022-09-16T06:51:53;12.30;99.90
20400;DHT22;10359;53.596;22.520;2022-09-16T06:54:23;12.30;99.90
20400;DHT22;10359;53.596;22.520;2022-09-16T06:56:55;12.40;99.90
20400;DHT22;10359;53.596;22.520;2022-09-16T06:59:24;12.60;99.90
20400;DHT22;10359;53.596;22.520;2022-09-16T07:01:53;12.60;99.90
20400;DHT22;10359;53.596;22.520;2022-09-16T07:04:22;12.40;99.90
20400;DHT22;10359;53.596;22.520;2022-09-16T07:06:51;12.40;99.90
20400;DHT22;10359;53.596;22.520;2022-09-16T07:09:37;12.40;99.90
20400;DHT22;10359;53.596;22.520;2022-09-16T07:12:06;12.50;99.90
20400;DHT22;10359;53.596;22.520;2022-09-16T07:14:36;12.60;99.90
20400;DHT22;10359;53.596;22.520;2022-09-16T07:17:05;12.60;99.90
20400;DHT22;10359;53.596;22.520;2022-09-16T07:19:35;12.70;99.90
20400;DHT22;10359;53.596;22.520;2022-09-16T07:22:05;12.70;99.90
20400;DHT22;10359;53.596;22.520;2022-09-16T07:24:37;12.90;99.90
20400;DHT22;10359;53.596;22.520;2022-09-16T07:27:06;12.80;99.90
20400;DHT22;10359;53.596;22.520;2022-09-16T07:29:35;13.00;99.90
20400;DHT22;10359;53.596;22.520;2022-09-16T07:32:04;13.00;99.90
20400;DHT22;10359;53.596;22.520;2022-09-16T07:34:33;13.10;99.90
20400;DHT22;10359;53.596;22.520;2022-09-16T07:37:02;13.30;99.90
20400;DHT22;10359;53.596;22.520;2022-09-16T07:39:32;13.20;99.90
20400;DHT22;10359;53.596;22.520;2022-09-16T07:42:03;13.30;99.90
20400;DHT22;10359;53.596;22.520;2022-09-16T07:44:32;13.40;99.90
20400;DHT22;10359;53.596;22.520;2022-09-16T07:47:02;13.60;99.90
20400;DHT22;10359;53.596;22.520;2022-09-16T07:49:31;13.70;99.90
20400;DHT22;10359;53.596;22.520;2022-09-16T07:52:01;13.80;99.90
20400;DHT22;10359;53.596;22.520;2022-09-16T07:54:30;13.80;99.90
20400;DHT22;10359;53.596;22.520;2022-09-16T07:56:59;13.90;99.90
20400;DHT22;10359;53.596;22.520;2022-09-16T07:59:30;14.00;99.90
20400;DHT22;10359;53.596;22.520;2022-09-16T08:02:00;13.80;99.90
20400;DHT22;10359;53.596;22.520;2022-09-16T08:04:29;13.90;99.90
20400;DHT22;10359;53.596;22.520;2022-09-16T08:06:59;14.10;99.90
20400;DHT22;10359;53.596;22.520;2022-09-16T08:09:28;14.30;99.90
20400;DHT22;10359;53.596;22.520;2022-09-16T08:12:10;14.60;99.90
20400;DHT22;10359;53.596;22.520;2022-09-16T08:14:42;14.30;99.90
20400;DHT22;10359;53.596;22.520;2022-09-16T08:17:12;14.50;99.90
20400;DHT22;10359;53.596;22.520;2022-09-16T08:19:42;14.80;99.90
20400;DHT22;10359;53.596;22.520;2022-09-16T08:22:11;14.90;99.90
20400;DHT22;10359;53.596;22.520;2022-09-16T08:24:41;15.00;99.90
20400;DHT22;10359;53.596;22.520;2022-09-16T08:27:10;15.00;99.90
20400;DHT22;10359;53.596;22.520;2022-09-16T08:29:42;15.00;99.90
20400;DHT22;10359;53.596;22.520;2022-09-16T08:32:11;14.90;99.90
20400;DHT22;10359;53.596;22.520;2022-09-16T08:34:40;15.50;99.90
20400;DHT22;10359;53.596;22.520;2022-09-16T08:37:09;15.90;99.90
20400;DHT22;10359;53.596;22.520;2022-09-16T08:39:38;16.20;99.90
20400;DHT22;10359;53.596;22.520;2022-09-16T08:42:28;16.20;99.90
20400;DHT22;10359;53.596;22.520;2022-09-16T08:45:15;15.70;99.90
20400;DHT22;10359;53.596;22.520;2022-09-16T08:47:57;15.70;99.90
20400;DHT22;10359;53.596;22.520;2022-09-16T08:50:37;15.70;99.90
20400;DHT22;10359;53.596;22.520;2022-09-16T08:53:12;15.60;99.90
20400;DHT22;10359;53.596;22.520;2022-09-16T08:55:45;15.80;99.90
20400;DHT22;10359;53.596;22.520;2022-09-16T08:58:17;16.00;99.90
20400;DHT22;10359;53.596;22.520;2022-09-16T09:00:53;16.20;99.90
20400;DHT22;10359;53.596;22.520;2022-09-16T09:03:33;16.00;99.90
20400;DHT22;10359;53.596;22.520;2022-09-16T09:06:10;16.00;99.90
20400;DHT22;10359;53.596;22.520;2022-09-16T09:08:49;15.80;99.90
20400;DHT22;10359;53.596;22.520;2022-09-16T09:11:26;15.90;99.90
20400;DHT22;10359;53.596;22.520;2022-09-16T09:14:11;15.80;99.90
20400;DHT22;10359;53.596;22.520;2022-09-16T09:16:54;15.70;99.90
20400;DHT22;10359;53.596;22.520;2022-09-16T09:19:37;15.70;99.90
20400;DHT22;10359;53.596;22.520;2022-09-16T09:22:16;15.90;99.90
20400;DHT22;10359;53.596;22.520;2022-09-16T09:24:57;15.70;99.90
20400;DHT22;10359;53.596;22.520;2022-09-16T09:27:34;15.70;99.90
20400;DHT22;10359;53.596;22.520;2022-09-16T09:30:12;15.80;99.90
20400;DHT22;10359;53.596;22.520;2022-09-16T09:32:56;15.80;99.90
20400;DHT22;10359;53.596;22.520;2022-09-16T09:35:40;16.30;99.90
20400;DHT22;10359;53.596;22.520;2022-09-16T09:41:13;15.80;99.90
20400;DHT22;10359;53.596;22.520;2022-09-16T09:43:46;16.10;99.90
20400;DHT22;10359;53.596;22.520;2022-09-16T09:46:22;16.60;99.90
20400;DHT22;10359;53.596;22.520;2022-09-16T09:48:59;16.80;99.90
20400;DHT22;10359;53.596;22.520;2022-09-16T09:51:33;16.90;99.90
20400;DHT22;10359;53.596;22.520;2022-09-16T09:54:13;16.70;99.90
20400;DHT22;10359;53.596;22.520;2022-09-16T09:56:47;16.80;99.90
20400;DHT22;10359;53.596;22.520;2022-09-16T09:59:26;16.80;99.90
20400;DHT22;10359;53.596;22.520;2022-09-16T10:01:58;16.70;99.90
20400;DHT22;10359;53.596;22.520;2022-09-16T10:04:34;16.40;99.90
20400;DHT22;10359;53.596;22.520;2022-09-16T10:07:05;16.10;99.90
20400;DHT22;10359;53.596;22.520;2022-09-16T10:09:35;15.90;99.90
20400;DHT22;10359;53.596;22.520;2022-09-16T10:12:05;15.90;99.90
20400;DHT22;10359;53.596;22.520;2022-09-16T10:14:36;16.20;99.90
20400;DHT22;10359;53.596;22.520;2022-09-16T10:17:14;16.30;99.90
20400;DHT22;10359;53.596;22.520;2022-09-16T10:19:52;15.90;99.90
20400;DHT22;10359;53.596;22.520;2022-09-16T10:22:25;15.90;99.90
20400;DHT22;10359;53.596;22.520;2022-09-16T10:24:57;16.00;99.90
20400;DHT22;10359;53.596;22.520;2022-09-16T10:27:28;16.10;99.90
20400;DHT22;10359;53.596;22.520;2022-09-16T10:30:13;16.00;99.90
20400;DHT22;10359;53.596;22.520;2022-09-16T10:32:48;16.20;99.90
20400;DHT22;10359;53.596;22.520;2022-09-16T10:35:22;16.60;99.90
20400;DHT22;10359;53.596;22.520;2022-09-16T10:37:53;17.40;99.90
20400;DHT22;10359;53.596;22.520;2022-09-16T10:40:24;17.50;99.90
20400;DHT22;10359;53.596;22.520;2022-09-16T10:42:58;17.60;99.90
20400;DHT22;10359;53.596;22.520;2022-09-16T10:45:30;17.50;99.90
20400;DHT22;10359;53.596;22.520;2022-09-16T10:48:03;17.80;99.90
20400;DHT22;10359;53.596;22.520;2022-09-16T10:50:35;18.00;99.90
20400;DHT22;10359;53.596;22.520;2022-09-16T10:53:25;17.70;99.90
20400;DHT22;10359;53.596;22.520;2022-09-16T10:55:57;17.60;99.90
20400;DHT22;10359;53.596;22.520;2022-09-16T10:58:28;17.30;99.90
20400;DHT22;10359;53.596;22.520;2022-09-16T11:01:12;17.40;99.90
20400;DHT22;10359;53.596;22.520;2022-09-16T11:04:03;17.50;99.90
20400;DHT22;10359;53.596;22.520;2022-09-16T11:06:47;17.90;99.90
20400;DHT22;10359;53.596;22.520;2022-09-16T11:09:25;17.60;99.90
20400;DHT22;10359;53.596;22.520;2022-09-16T11:12:17;17.50;99.90
20400;DHT22;10359;53.596;22.520;2022-09-16T11:14:58;16.90;99.90
20400;DHT22;10359;53.596;22.520;2022-09-16T11:17:39;16.40;99.90
20400;DHT22;10359;53.596;22.520;2022-09-16T11:20:40;16.30;99.90
20400;DHT22;10359;53.596;22.520;2022-09-16T11:23:26;16.40;99.90
20400;DHT22;10359;53.596;22.520;2022-09-16T11:26:02;16.60;99.90
20400;DHT22;10359;53.596;22.520;2022-09-16T11:28:55;16.70;99.90
20400;DHT22;10359;53.596;22.520;2022-09-16T11:31:39;16.90;99.90
20400;DHT22;10359;53.596;22.520;2022-09-16T11:34:22;16.90;99.90
20400;DHT22;10359;53.596;22.520;2022-09-16T11:37:02;17.00;99.90
20400;DHT22;10359;53.596;22.520;2022-09-16T11:39:47;16.90;99.90
20400;DHT22;10359;53.596;22.520;2022-09-16T11:42:27;17.10;99.90
20400;DHT22;10359;53.596;22.520;2022-09-16T11:45:07;17.10;99.90
20400;DHT22;10359;53.596;22.520;2022-09-16T11:47:52;16.90;99.90
20400;DHT22;10359;53.596;22.520;2022-09-16T11:50:31;17.20;99.90
20400;DHT22;10359;53.596;22.520;2022-09-16T11:53:21;17.60;99.90
20400;DHT22;10359;53.596;22.520;2022-09-16T11:56:03;18.10;99.90
20400;DHT22;10359;53.596;22.520;2022-09-16T11:58:37;17.20;99.90
20400;DHT22;10359;53.596;22.520;2022-09-16T12:01:18;17.30;99.90
20400;DHT22;10359;53.596;22.520;2022-09-16T12:03:54;17.20;99.90
20400;DHT22;10359;53.596;22.520;2022-09-16T12:06:29;17.10;99.90
20400;DHT22;10359;53.596;22.520;2022-09-16T12:09:02;16.90;99.90
20400;DHT22;10359;53.596;22.520;2022-09-16T12:11:41;16.70;99.90
20400;DHT22;10359;53.596;22.520;2022-09-16T12:14:14;16.70;99.90
20400;DHT22;10359;53.596;22.520;2022-09-16T12:16:47;16.80;99.90
20400;DHT22;10359;53.596;22.520;2022-09-16T12:19:22;16.80;99.90
20400;DHT22;10359;53.596;22.520;2022-09-16T12:21:57;17.40;99.90
20400;DHT22;10359;53.596;22.520;2022-09-16T12:24:34;17.50;99.90
20400;DHT22;10359;53.596;22.520;2022-09-16T12:27:29;17.50;99.90
20400;DHT22;10359;53.596;22.520;2022-09-16T12:30:04;17.60;99.90
20400;DHT22;10359;53.596;22.520;2022-09-16T12:32:37;17.40;99.90
20400;DHT22;10359;53.596;22.520;2022-09-16T12:35:14;17.60;99.90
20400;DHT22;10359;53.596;22.520;2022-09-16T12:37:47;18.20;99.90
20400;DHT22;10359;53.596;22.520;2022-09-16T12:40:19;18.50;99.90
20400;DHT22;10359;53.596;22.520;2022-09-16T12:46:06;18.60;99.90
20400;DHT22;10359;53.596;22.520;2022-09-16T12:52:09;18.10;99.90
20400;DHT22;10359;53.596;22.520;2022-09-16T12:58:05;17.50;99.90
20400;DHT22;10359;53.596;22.520;2022-09-16T13:00:42;17.90;99.90
20400;DHT22;10359;53.596;22.520;2022-09-16T13:03:15;18.40;99.90
20400;DHT22;10359;53.596;22.520;2022-09-16T13:05:47;18.50;99.90
20400;DHT22;10359;53.596;22.520;2022-09-16T13:08:20;18.30;99.90
20400;DHT22;10359;53.596;22.520;2022-09-16T13:10:56;18.20;99.90
20400;DHT22;10359;53.596;22.520;2022-09-16T13:13:49;17.90;99.90
20400;DHT22;10359;53.596;22.520;2022-09-16T13:16:30;17.90;99.90
20400;DHT22;10359;53.596;22.520;2022-09-16T13:22:16;18.00;99.90
20400;DHT22;10359;53.596;22.520;2022-09-16T13:24:52;17.90;99.90
20400;DHT22;10359;53.596;22.520;2022-09-16T13:27:28;17.70;99.90
20400;DHT22;10359;53.596;22.520;2022-09-16T13:33:25;17.10;99.90
20400;DHT22;10359;53.596;22.520;2022-09-16T13:36:16;16.80;99.90
20400;DHT22;10359;53.596;22.520;2022-09-16T13:38:57;16.90;99.90
20400;DHT22;10359;53.596;22.520;2022-09-16T13:41:34;16.80;99.90
20400;DHT22;10359;53.596;22.520;2022-09-16T13:44:25;16.50;99.90
20400;DHT22;10359;53.596;22.520;2022-09-16T13:47:15;16.60;99.90
20400;DHT22;10359;53.596;22.520;2022-09-16T13:49:47;16.50;99.90
20400;DHT22;10359;53.596;22.520;2022-09-16T13:52:20;17.00;99.90
20400;DHT22;10359;53.596;22.520;2022-09-16T13:54:51;16.90;99.90
20400;DHT22;10359;53.596;22.520;2022-09-16T13:57:48;17.00;99.90
20400;DHT22;10359;53.596;22.520;2022-09-16T14:00:20;17.10;99.90
20400;DHT22;10359;53.596;22.520;2022-09-16T14:03:17;17.30;99.90
20400;DHT22;10359;53.596;22.520;2022-09-16T14:08:57;17.40;99.90
20400;DHT22;10359;53.596;22.520;2022-09-16T14:11:33;17.20;99.90
20400;DHT22;10359;53.596;22.520;2022-09-16T14:14:07;17.30;99.90
20400;DHT22;10359;53.596;22.520;2022-09-16T14:16:59;17.30;99.90
20400;DHT22;10359;53.596;22.520;2022-09-16T14:19:35;16.90;99.90
20400;DHT22;10359;53.596;22.520;2022-09-16T14:22:12;16.90;99.90
20400;DHT22;10359;53.596;22.520;2022-09-16T14:24:44;16.80;99.90
20400;DHT22;10359;53.596;22.520;2022-09-16T14:27:29;16.90;99.90
20400;DHT22;10359;53.596;22.520;2022-09-16T14:30:02;17.00;99.90
20400;DHT22;10359;53.596;22.520;2022-09-16T14:32:34;17.00;99.90
20400;DHT22;10359;53.596;22.520;2022-09-16T14:35:14;16.70;99.90
20400;DHT22;10359;53.596;22.520;2022-09-16T14:37:45;16.60;99.90
20400;DHT22;10359;53.596;22.520;2022-09-16T14:40:17;16.60;99.90
20400;DHT22;10359;53.596;22.520;2022-09-16T14:42:53;16.70;99.90
20400;DHT22;10359;53.596;22.520;2022-09-16T14:45:23;16.70;99.90
20400;DHT22;10359;53.596;22.520;2022-09-16T14:47:53;16.80;99.90
20400;DHT22;10359;53.596;22.520;2022-09-16T14:50:27;17.00;99.90
20400;DHT22;10359;53.596;22.520;2022-09-16T14:52:58;16.90;99.90
20400;DHT22;10359;53.596;22.520;2022-09-16T14:55:28;16.70;99.90
20400;DHT22;10359;53.596;22.520;2022-09-16T14:57:58;16.50;99.90
20400;DHT22;10359;53.596;22.520;2022-09-16T15:00:31;16.50;99.90
20400;DHT22;10359;53.596;22.520;2022-09-16T15:03:08;16.40;99.90
20400;DHT22;10359;53.596;22.520;2022-09-16T15:05:42;16.40;99.90
20400;DHT22;10359;53.596;22.520;2022-09-16T15:08:17;16.60;99.90
20400;DHT22;10359;53.596;22.520;2022-09-16T15:10:50;16.60;99.90
20400;DHT22;10359;53.596;22.520;2022-09-16T15:13:24;16.50;99.90
20400;DHT22;10359;53.596;22.520;2022-09-16T15:15:56;16.60;99.90
20400;DHT22;10359;53.596;22.520;2022-09-16T15:18:30;16.50;99.90
20400;DHT22;10359;53.596;22.520;2022-09-16T15:21:05;16.20;99.90
20400;DHT22;10359;53.596;22.520;2022-09-16T15:23:38;16.20;99.90
20400;DHT22;10359;53.596;22.520;2022-09-16T15:26:13;16.40;99.90
20400;DHT22;10359;53.596;22.520;2022-09-16T15:28:54;16.20;99.90
20400;DHT22;10359;53.596;22.520;2022-09-16T15:31:30;16.00;99.90
20400;DHT22;10359;53.596;22.520;2022-09-16T15:34:03;15.80;99.90
20400;DHT22;10359;53.596;22.520;2022-09-16T15:36:39;15.60;99.90
20400;DHT22;10359;53.596;22.520;2022-09-16T15:39:22;15.40;99.90
20400;DHT22;10359;53.596;22.520;2022-09-16T15:42:08;15.30;99.90
20400;DHT22;10359;53.596;22.520;2022-09-16T15:44:42;15.10;99.90
20400;DHT22;10359;53.596;22.520;2022-09-16T15:47:17;14.90;99.90
20400;DHT22;10359;53.596;22.520;2022-09-16T15:49:47;14.70;99.90
20400;DHT22;10359;53.596;22.520;2022-09-16T15:52:20;14.60;99.90
20400;DHT22;10359;53.596;22.520;2022-09-16T15:54:52;14.40;99.90
20400;DHT22;10359;53.596;22.520;2022-09-16T15:57:27;14.30;99.90
20400;DHT22;10359;53.596;22.520;2022-09-16T16:00:00;14.20;99.90
20400;DHT22;10359;53.596;22.520;2022-09-16T16:02:39;14.10;99.90
20400;DHT22;10359;53.596;22.520;2022-09-16T16:05:11;14.00;99.90
20400;DHT22;10359;53.596;22.520;2022-09-16T16:07:43;13.90;99.90
20400;DHT22;10359;53.596;22.520;2022-09-16T16:10:16;13.80;99.90
20400;DHT22;10359;53.596;22.520;2022-09-16T16:12:46;13.60;99.90
20400;DHT22;10359;53.596;22.520;2022-09-16T16:15:17;13.50;99.90
20400;DHT22;10359;53.596;22.520;2022-09-16T16:17:46;13.40;99.90
20400;DHT22;10359;53.596;22.520;2022-09-16T16:20:17;13.30;99.90
20400;DHT22;10359;53.596;22.520;2022-09-16T16:22:48;13.20;99.90
20400;DHT22;10359;53.596;22.520;2022-09-16T16:25:18;13.00;99.90
20400;DHT22;10359;53.596;22.520;2022-09-16T16:27:48;12.90;99.90
20400;DHT22;10359;53.596;22.520;2022-09-16T16:30:17;12.80;99.90